TimeCST,TemperatureF,Dew PointF,Humidity,Sea Level PressureIn,VisibilityMPH,Wind Direction,Wind SpeedMPH,Gust SpeedMPH,PrecipitationIn,Events,Conditions,WindDirDegrees,DateUTC
6:00 AM,65,63,92,,6,ESE,2.3,,,,Overcast,120,2012-10-14 12:00:00
6:00 AM,64.4,62.6,94,29.99,6.2,ESE,2.3,-,N/A,,Mostly Cloudy,120,2012-10-14 12:00:00
7:00 AM,66.2,62.6,88,30.00,6.2,East,4.6,-,N/A,,Mostly Cloudy,100,2012-10-14 13:00:00
8:00 AM,73.4,62.6,69,30.02,6.2,East,2.3,-,N/A,,Mostly Cloudy,80,2012-10-14 14:00:00
9:00 AM,75,62,56,,4,Calm,Calm,,,,Overcast,,2012-10-14 15:00:00
9:00 AM,75.2,62.6,65,30.02,6.2,Calm,Calm,-,N/A,,Mostly Cloudy,0,2012-10-14 15:00:00
9:40 AM,75.2,62.6,65,30.02,6.2,West,3.5,-,N/A,,Scattered Clouds,260,2012-10-14 15:40:00
10:00 AM,75.2,64.4,69,30.01,6.2,West,4.6,-,N/A,,Mostly Cloudy,260,2012-10-14 16:00:00
11:00 AM,77.0,64.4,65,29.98,6.2,West,4.6,-,N/A,,Scattered Clouds,270,2012-10-14 17:00:00
12:00 PM,74,67,71,,6,West,10.4,,,,Overcast,280,2012-10-14 18:00:00
12:00 PM,73.4,66.2,78,29.97,6.2,West,10.4,-,N/A,,Mostly Cloudy,280,2012-10-14 18:00:00
1:00 PM,73.4,66.2,78,29.97,6.2,WNW,10.4,-,N/A,,Mostly Cloudy,290,2012-10-14 19:00:00
2:00 PM,75.2,66.2,73,29.91,6.2,West,11.5,-,N/A,,Scattered Clouds,270,2012-10-14 20:00:00
3:00 PM,73,66,72,,6,West,13.8,,,Rain,Heavy Rain Showers,280,2012-10-14 21:00:00
3:00 PM,73.4,66.2,78,29.91,6.2,West,13.8,-,N/A,Rain-Thunderstorm,Rain Showers,280,2012-10-14 21:00:00
4:00 PM,71.6,66.2,83,29.94,6.2,WNW,10.4,-,N/A,,Mostly Cloudy,290,2012-10-14 22:00:00
4:14 PM,69.8,68.0,94,29.95,6.2,WNW,10.4,-,N/A,Rain,Rain Showers,290,2012-10-14 22:14:00
5:00 PM,68.0,68.0,100,29.96,2.5,NW,4.6,-,N/A,,Mostly Cloudy,310,2012-10-14 23:00:00
6:00 PM,68,68,100,,6,WNW,5.8,,,Rain,Light Drizzle,290,2012-10-15 00:00:00
6:00 PM,68.0,68.0,100,29.97,5.6,WNW,5.8,-,N/A,,Light Drizzle,290,2012-10-15 00:00:00